Time;durP1;ratioP1;P1;durP2;ratioP2;P2;SDS_P1;SDS_P2;PMS_P1;PMS_P2;Temp;Humidity;BMP_temperature;BMP_pressure;BME280_temperature;BME280_humidity;BME280_pressure;Samples;Min_cycle;Max_cycle;Signal;HPM_P1;HPM_P2
2022/08/08 00:02:45;;;;;;;9.07;5.10;;;22.00;26.10;;;;;;4951495;29;20462;-73
2022/08/08 00:05:20;;;;;;;6.27;4.43;;;22.10;26.20;;;;;;4950985;29;22148;-73
2022/08/08 00:08:23;;;;;;;11.77;4.47;;;21.80;28.00;;;;;;4938626;29;20961;-74
2022/08/08 00:11:02;;;;;;;4.87;4.63;;;21.50;28.10;;;;;;4912600;29;20461;-73
2022/08/08 00:13:32;;;;;;;5.70;4.70;;;;;;;;;;4904763;29;20413;-73
2022/08/08 00:16:06;;;;;;;7.10;4.50;;;21.40;29.00;;;;;;4930063;29;20452;-77
2022/08/08 00:18:54;;;;;;;7.60;4.63;;;21.30;29.70;;;;;;4933681;29;20467;-74
2022/08/08 00:21:29;;;;;;;8.13;4.60;;;21.30;30.00;;;;;;4933176;29;20424;-74
2022/08/08 00:24:01;;;;;;;8.67;4.70;;;21.30;28.70;;;;;;4932042;29;20428;-73
2022/08/08 00:26:34;;;;;;;5.40;4.50;;;21.30;29.60;;;;;;4928584;29;20473;-73
2022/08/08 00:29:28;;;;;;;13.73;5.00;;;21.20;29.90;;;;;;4932664;29;20442;-77
2022/08/08 00:32:02;;;;;;;7.03;5.27;;;21.40;30.00;;;;;;4888768;29;20484;-73
2022/08/08 00:35:14;;;;;;;8.17;5.20;;;21.20;29.80;;;;;;4931022;29;20540;-81
2022/08/08 00:38:07;;;;;;;5.00;4.50;;;21.20;30.50;;;;;;4932451;29;20588;-73
2022/08/08 00:41:00;;;;;;;7.07;4.70;;;21.00;30.00;;;;;;4914098;29;20459;-73
2022/08/08 00:44:03;;;;;;;6.73;4.60;;;21.00;30.00;;;;;;4920191;29;20443;-73
2022/08/08 00:46:49;;;;;;;5.73;4.87;;;21.20;31.20;;;;;;5012244;28;20447;-73
2022/08/08 00:49:54;;;;;;;6.23;4.77;;;20.90;31.00;;;;;;5012805;28;20392;-73
2022/08/08 00:52:41;;;;;;;6.07;5.00;;;20.70;32.30;;;;;;4993063;28;20436;-73
2022/08/08 00:55:23;;;;;;;8.87;5.47;;;20.60;32.50;;;;;;5011386;28;20450;-73
2022/08/08 00:58:21;;;;;;;5.90;4.93;;;20.90;31.70;;;;;;5004254;28;20478;-73
2022/08/08 01:01:05;;;;;;;6.77;4.80;;;20.90;31.80;;;;;;5010791;28;20922;-75
2022/08/08 01:04:07;;;;;;;7.93;5.07;;;20.90;31.90;;;;;;5012145;28;20408;-78
2022/08/08 01:06:53;;;;;;;6.50;4.50;;;20.80;30.80;;;;;;5011034;28;20427;-73
2022/08/08 01:09:43;;;;;;;6.73;5.00;;;20.60;32.10;;;;;;5007053;28;20454;-74
2022/08/08 01:12:38;;;;;;;5.70;4.80;;;20.90;30.50;;;;;;5009084;28;20548;-76
2022/08/08 01:15:31;;;;;;;9.00;4.73;;;21.00;30.70;;;;;;4945876;29;20462;-76
2022/08/08 01:18:35;;;;;;;8.80;4.93;;;20.60;30.70;;;;;;4930267;29;20431;-73
2022/08/08 01:21:21;;;;;;;6.90;5.30;;;20.60;31.20;;;;;;4923860;29;20473;-73
2022/08/08 01:24:02;;;;;;;7.20;5.17;;;20.40;32.80;;;;;;4925965;29;20518;-76
2022/08/08 01:26:58;;;;;;;7.13;5.40;;;20.30;32.10;;;;;;4932468;29;20441;-73
2022/08/08 01:29:42;;;;;;;6.33;5.03;;;20.30;32.60;;;;;;4932428;29;20434;-73
2022/08/08 01:32:11;;;;;;;5.60;4.53;;;20.30;34.50;;;;;;4931927;29;20582;-74
2022/08/08 01:34:50;;;;;;;7.93;4.90;;;20.30;32.10;;;;;;4931777;29;20548;-73
2022/08/08 01:37:58;;;;;;;8.47;4.53;;;20.20;30.90;;;;;;4932509;29;20428;-74
2022/08/08 01:40:31;;;;;;;5.63;4.20;;;20.20;31.30;;;;;;4915124;29;20433;-77
2022/08/08 01:43:17;;;;;;;10.13;4.37;;;19.80;30.80;;;;;;4939617;29;20436;-73
2022/08/08 01:46:10;;;;;;;7.63;4.43;;;19.70;31.60;;;;;;4931306;29;20462;-73
2022/08/08 01:48:58;;;;;;;8.00;5.10;;;19.80;33.10;;;;;;4913325;29;20522;-77
2022/08/08 01:51:46;;;;;;;6.37;4.37;;;19.90;31.80;;;;;;4948362;28;20501;-77
2022/08/08 01:54:30;;;;;;;7.90;5.33;;;19.90;30.30;;;;;;5011435;28;20758;-76
2022/08/08 01:57:32;;;;;;;15.60;5.57;;;19.80;31.70;;;;;;5006603;28;20440;-73
2022/08/08 02:00:18;;;;;;;6.40;4.73;;;19.20;31.80;;;;;;4992233;28;20384;-76
2022/08/08 02:02:44;;;;;;;6.70;5.53;;;18.90;32.70;;;;;;5008009;28;20429;-75
2022/08/08 02:05:30;;;;;;;9.40;4.90;;;18.90;33.40;;;;;;5006076;28;20482;-73
2022/08/08 02:08:33;;;;;;;7.43;5.37;;;19.30;33.10;;;;;;4999527;28;20176;-78
2022/08/08 02:11:17;;;;;;;6.90;5.40;;;19.70;32.60;;;;;;5011301;28;20534;-73
2022/08/08 02:14:04;;;;;;;8.27;5.47;;;19.70;31.90;;;;;;5009687;28;20452;-73
2022/08/08 02:16:48;;;;;;;7.20;5.30;;;19.60;33.20;;;;;;5011534;28;20429;-74
2022/08/08 02:19:30;;;;;;;8.80;5.63;;;19.70;32.90;;;;;;5011860;28;20389;-73
2022/08/08 02:25:14;;;;;;;7.67;5.07;;;19.50;34.20;;;;;;4992240;28;20431;-74
2022/08/08 02:28:04;;;;;;;13.90;4.83;;;19.50;34.10;;;;;;4992090;28;20498;-73
2022/08/08 02:30:55;;;;;;;7.83;5.10;;;19.50;34.60;;;;;;4991999;28;20558;-73
2022/08/08 02:34:00;;;;;;;6.40;5.00;;;19.40;34.90;;;;;;5009493;28;20996;-74
2022/08/08 02:36:38;;;;;;;7.73;5.50;;;19.40;36.20;;;;;;5008093;28;20565;-73
2022/08/08 02:39:03;;;;;;;8.53;5.50;;;19.30;35.90;;;;;;5011414;28;20401;-73
2022/08/08 02:41:51;;;;;;;13.07;5.20;;;19.40;35.70;;;;;;5011290;28;20495;-78
2022/08/08 02:44:41;;;;;;;6.37;4.93;;;19.50;35.40;;;;;;5007534;28;20188;-73
2022/08/08 02:47:31;;;;;;;9.80;5.70;;;19.50;35.20;;;;;;5011348;28;20954;-73
2022/08/08 02:50:15;;;;;;;6.03;5.23;;;19.60;35.00;;;;;;5011182;28;20414;-73
2022/08/08 02:53:07;;;;;;;7.80;5.53;;;19.70;35.20;;;;;;5014516;28;20390;-73
2022/08/08 02:56:15;;;;;;;6.93;5.73;;;19.80;34.80;;;;;;5007551;28;20465;-73
2022/08/08 02:58:52;;;;;;;8.37;5.47;;;19.80;34.00;;;;;;4940690;29;20446;-73
2022/08/08 03:01:44;;;;;;;6.40;5.40;;;19.90;35.60;;;;;;4934872;29;20425;-73
2022/08/08 03:04:38;;;;;;;6.00;5.40;;;20.00;34.90;;;;;;4936648;29;20469;-74
2022/08/08 03:07:23;;;;;;;6.90;5.73;;;20.00;35.30;;;;;;4896699;29;20446;-73
2022/08/08 03:10:37;;;;;;;9.83;6.60;;;19.90;35.10;;;;;;4881244;29;20435;-73
2022/08/08 03:13:09;;;;;;;7.80;6.30;;;19.60;35.40;;;;;;4896482;29;20872;-73
2022/08/08 03:16:01;;;;;;;9.90;6.77;;;19.50;35.70;;;;;;4880276;29;20441;-73
2022/08/08 03:18:58;;;;;;;8.23;5.60;;;19.50;36.50;;;;;;4905282;29;20435;-73
2022/08/08 03:21:24;;;;;;;7.60;6.03;;;19.60;36.50;;;;;;4909852;29;20496;-77
2022/08/08 03:23:49;;;;;;;8.63;6.53;;;19.70;36.70;;;;;;4895546;29;20518;-73
2022/08/08 03:26:25;;;;;;;8.90;5.80;;;19.50;36.00;;;;;;4895762;29;20218;-73
2022/08/08 03:28:55;;;;;;;8.67;5.47;;;19.50;36.80;;;;;;4894088;29;20278;-75
2022/08/08 03:34:07;;;;;;;9.13;6.97;;;19.00;35.90;;;;;;4934527;29;20510;-78
2022/08/08 03:36:39;;;;;;;10.20;7.33;;;18.90;35.80;;;;;;4952383;29;20463;-77
2022/08/08 03:39:05;;;;;;;11.73;7.10;;;19.10;36.80;;;;;;4952803;29;21110;-73
2022/08/08 03:41:33;;;;;;;13.23;7.20;;;19.00;35.90;;;;;;4953012;29;20460;-73
2022/08/08 03:43:58;;;;;;;10.17;7.10;;;19.00;36.00;;;;;;4958277;28;20449;-78
2022/08/08 03:46:24;;;;;;;9.77;6.33;;;19.10;35.50;;;;;;4994059;28;20432;-73
2022/08/08 03:48:57;;;;;;;8.60;6.40;;;19.10;35.50;;;;;;5005632;28;20178;-73
2022/08/08 03:51:23;;;;;;;10.73;5.80;;;19.00;36.90;;;;;;4995752;28;20207;-77
2022/08/08 03:53:50;;;;;;;8.57;6.07;;;18.90;36.90;;;;;;5013288;28;20499;-74
2022/08/08 03:56:17;;;;;;;11.90;6.87;;;18.80;36.50;;;;;;5012803;28;20460;-73
2022/08/08 03:58:48;;;;;;;9.73;6.90;;;18.80;36.00;;;;;;5012646;28;20469;-72
2022/08/08 04:01:14;;;;;;;17.73;7.10;;;18.60;36.50;;;;;;5013045;28;20435;-73
2022/08/08 04:03:42;;;;;;;8.90;6.10;;;18.50;37.30;;;;;;5010362;28;20488;-74
2022/08/08 04:06:08;;;;;;;9.27;6.43;;;;;;;;;;5008875;28;20695;-75
2022/08/08 04:08:36;;;;;;;11.47;6.10;;;18.60;37.00;;;;;;5012438;28;20420;-74
2022/08/08 04:11:04;;;;;;;8.60;6.70;;;18.80;37.80;;;;;;5012875;28;20456;-74
2022/08/08 04:13:29;;;;;;;10.73;5.73;;;18.80;38.00;;;;;;5013392;28;20506;-77
2022/08/08 04:15:55;;;;;;;10.80;6.20;;;19.10;36.70;;;;;;5007119;28;20541;-73
2022/08/08 04:18:20;;;;;;;7.03;5.90;;;18.90;36.70;;;;;;5011855;28;20722;-73
2022/08/08 04:20:46;;;;;;;9.37;6.30;;;18.90;36.60;;;;;;5010406;28;20189;-73
2022/08/08 04:23:12;;;;;;;8.90;6.10;;;18.80;37.00;;;;;;5005820;28;20183;-75
2022/08/08 04:25:37;;;;;;;10.50;6.40;;;18.80;37.40;;;;;;5012871;28;20241;-78
2022/08/08 04:28:03;;;;;;;10.00;6.07;;;18.80;38.00;;;;;;5012773;28;20174;-73
2022/08/08 04:30:29;;;;;;;16.33;6.67;;;18.80;36.10;;;;;;5012306;28;20244;-73
2022/08/08 04:32:55;;;;;;;10.20;7.10;;;18.80;36.10;;;;;;5012193;28;20456;-74
2022/08/08 04:35:20;;;;;;;8.83;6.20;;;18.90;37.80;;;;;;5011952;28;20666;-74
2022/08/08 04:37:46;;;;;;;8.73;6.50;;;18.90;37.00;;;;;;5012560;28;20213;-75
2022/08/08 04:40:12;;;;;;;7.27;6.37;;;18.50;36.30;;;;;;5012293;28;20181;-73
2022/08/08 04:42:37;;;;;;;19.13;8.67;;;18.60;37.00;;;;;;5011400;28;20243;-73
2022/08/08 04:45:04;;;;;;;12.00;6.87;;;18.60;36.70;;;;;;5012376;28;20281;-73
2022/08/08 04:47:30;;;;;;;10.27;6.30;;;18.60;36.90;;;;;;5012539;28;20171;-72
2022/08/08 04:49:56;;;;;;;22.90;7.30;;;18.60;36.90;;;;;;5012480;28;20412;-73
2022/08/08 04:52:21;;;;;;;13.40;6.90;;;18.60;37.30;;;;;;5007891;28;20209;-73
2022/08/08 04:54:47;;;;;;;10.17;6.80;;;18.00;39.20;;;;;;5012223;28;20195;-73
2022/08/08 04:57:12;;;;;;;8.60;6.40;;;18.20;38.00;;;;;;5012335;28;20220;-76
2022/08/08 04:59:39;;;;;;;8.70;5.70;;;18.30;37.60;;;;;;5012535;28;20223;-73
2022/08/08 05:02:05;;;;;;;10.80;7.40;;;18.30;37.90;;;;;;5007993;28;20278;-73
2022/08/08 05:04:30;;;;;;;11.67;8.37;;;18.40;36.50;;;;;;5006158;28;20558;-77
2022/08/08 05:06:56;;;;;;;13.00;8.20;;;18.50;38.00;;;;;;5011929;28;20186;-75
2022/08/08 05:09:22;;;;;;;12.77;9.10;;;18.60;38.00;;;;;;5012163;28;20689;-74
2022/08/08 05:11:48;;;;;;;14.90;10.47;;;18.60;36.10;;;;;;5010824;28;20704;-73
2022/08/08 05:14:14;;;;;;;12.30;9.70;;;18.70;36.40;;;;;;5011253;28;20269;-74
2022/08/08 05:16:40;;;;;;;18.40;13.17;;;18.70;36.80;;;;;;5012180;28;20437;-74
2022/08/08 05:19:11;;;;;;;13.77;11.63;;;18.70;36.30;;;;;;5012060;28;20799;-73
2022/08/08 05:21:40;;;;;;;16.70;11.00;;;18.80;36.40;;;;;;5010536;28;20205;-76
2022/08/08 05:24:07;;;;;;;11.23;8.00;;;18.80;36.90;;;;;;5008490;28;20545;-77
2022/08/08 05:26:34;;;;;;;9.07;7.40;;;18.60;36.90;;;;;;5008881;28;20537;-77
2022/08/08 05:29:02;;;;;;;8.17;6.47;;;18.70;37.90;;;;;;5008978;28;20460;-76
2022/08/08 05:31:28;;;;;;;13.50;6.50;;;18.80;36.50;;;;;;5010557;28;21001;-74
2022/08/08 05:33:54;;;;;;;10.60;8.00;;;18.20;37.60;;;;;;5010727;28;20511;-74
2022/08/08 05:36:24;;;;;;;10.77;7.40;;;18.40;38.50;;;;;;4994327;28;20470;-75
2022/08/08 05:38:51;;;;;;;18.77;9.60;;;18.50;36.70;;;;;;5011862;28;20208;-79
2022/08/08 05:41:22;;;;;;;15.23;8.23;;;18.40;36.70;;;;;;5010547;28;20457;-75
2022/08/08 05:43:48;;;;;;;18.67;8.90;;;18.30;38.00;;;;;;5011940;28;20484;-79
2022/08/08 05:46:15;;;;;;;14.43;10.67;;;18.10;37.10;;;;;;5011748;28;20462;-76
2022/08/08 05:48:42;;;;;;;12.10;8.33;;;18.30;36.80;;;;;;5010847;28;20443;-76
2022/08/08 05:51:08;;;;;;;11.17;8.30;;;18.20;36.90;;;;;;5010088;28;20556;-78
2022/08/08 05:53:34;;;;;;;14.00;8.73;;;18.50;37.10;;;;;;5010912;28;20573;-77
2022/08/08 05:56:00;;;;;;;12.47;8.73;;;18.70;37.30;;;;;;5010920;28;20471;-75
2022/08/08 05:58:28;;;;;;;12.50;8.30;;;18.70;37.30;;;;;;5011791;28;20183;-78
2022/08/08 06:00:59;;;;;;;14.33;8.17;;;19.30;35.80;;;;;;5011542;28;20419;-77
2022/08/08 06:03:27;;;;;;;11.03;7.17;;;19.30;36.60;;;;;;5010691;28;20504;-75
2022/08/08 06:05:57;;;;;;;11.50;7.43;;;19.80;36.50;;;;;;5010755;28;20443;-76
2022/08/08 06:08:33;;;;;;;14.43;8.30;;;20.00;35.60;;;;;;5011094;28;20435;-74
2022/08/08 06:10:59;;;;;;;18.57;10.20;;;20.10;33.40;;;;;;5009872;28;20479;-74
2022/08/08 06:13:29;;;;;;;12.63;9.30;;;19.60;33.00;;;;;;5010745;28;20467;-74
2022/08/08 06:15:56;;;;;;;12.60;10.20;;;19.60;34.20;;;;;;5009043;28;20447;-74
2022/08/08 06:18:23;;;;;;;13.07;10.87;;;19.90;32.50;;;;;;5011301;28;20437;-74
2022/08/08 06:20:54;;;;;;;15.57;11.90;;;19.70;33.00;;;;;;5010409;28;20432;-73
2022/08/08 06:23:25;;;;;;;19.97;13.73;;;19.70;33.60;;;;;;5009483;28;20443;-73
2022/08/08 06:26:17;;;;;;;16.60;12.13;;;19.90;33.40;;;;;;5011505;28;20450;-79
2022/08/08 06:28:52;;;;;;;13.17;9.13;;;20.20;32.30;;;;;;5011818;28;20831;-74
2022/08/08 06:31:22;;;;;;;13.30;8.77;;;19.60;33.60;;;;;;5013803;28;21055;-73
2022/08/08 06:34:00;;;;;;;13.80;8.60;;;19.60;33.90;;;;;;5013715;28;20440;-74
2022/08/08 06:36:34;;;;;;;12.47;9.10;;;19.30;33.30;;;;;;5005977;28;20458;-76
2022/08/08 06:39:02;;;;;;;14.13;9.23;;;19.50;33.60;;;;;;5014314;28;20442;-75
2022/08/08 06:41:32;;;;;;;9.23;7.67;;;19.70;33.60;;;;;;5006192;28;20408;-74
2022/08/08 06:44:01;;;;;;;9.20;6.90;;;19.80;34.50;;;;;;5010608;28;20431;-73
2022/08/08 06:46:28;;;;;;;9.53;6.23;;;19.80;32.20;;;;;;5012802;28;20459;-78
2022/08/08 06:48:55;;;;;;;7.90;6.20;;;20.00;31.60;;;;;;5010402;28;20531;-76
2022/08/08 06:51:21;;;;;;;8.60;6.37;;;20.20;31.50;;;;;;5013057;28;20551;-73
2022/08/08 06:53:48;;;;;;;9.90;7.80;;;20.50;30.90;;;;;;5013221;28;20502;-77
2022/08/08 06:56:13;;;;;;;10.20;7.90;;;20.30;32.00;;;;;;5014286;28;20516;-76
2022/08/08 06:58:39;;;;;;;10.53;7.87;;;20.70;31.10;;;;;;5014725;28;20942;-75
2022/08/08 07:01:09;;;;;;;9.07;7.50;;;21.50;29.20;;;;;;5013760;28;20186;-75
2022/08/08 07:03:52;;;;;;;12.57;7.67;;;21.50;29.50;;;;;;5014661;28;20161;-75
2022/08/08 07:06:22;;;;;;;8.60;7.07;;;20.70;30.80;;;;;;5012031;28;20983;-76
2022/08/08 07:08:52;;;;;;;12.50;8.50;;;20.20;32.30;;;;;;5009764;28;20436;-75
2022/08/08 07:11:21;;;;;;;9.00;7.37;;;20.60;31.10;;;;;;5013393;28;20456;-74
2022/08/08 07:13:52;;;;;;;13.50;8.20;;;21.00;30.30;;;;;;5013437;28;20428;-73
2022/08/08 07:16:27;;;;;;;10.17;6.93;;;20.90;30.20;;;;;;5011238;28;20454;-74
2022/08/08 07:19:14;;;;;;;13.20;6.57;;;20.80;31.80;;;;;;5013116;28;20449;-76
2022/08/08 07:21:56;;;;;;;8.10;6.83;;;21.30;32.60;;;;;;5007115;28;20466;-76
2022/08/08 07:24:28;;;;;;;9.47;6.53;;;21.30;30.30;;;;;;5014074;28;20495;-75
2022/08/08 07:26:57;;;;;;;7.73;6.30;;;21.30;30.30;;;;;;5012449;28;20472;-75
2022/08/08 07:29:23;;;;;;;7.40;6.13;;;21.90;31.80;;;;;;5013188;28;20438;-78
2022/08/08 07:31:49;;;;;;;9.17;7.33;;;22.00;30.80;;;;;;5013068;28;20458;-75
2022/08/08 07:34:16;;;;;;;8.60;6.17;;;22.10;29.70;;;;;;5011816;28;20183;-76
2022/08/08 07:36:42;;;;;;;14.43;6.73;;;22.10;30.10;;;;;;5012367;28;20533;-75
2022/08/08 07:39:08;;;;;;;8.77;6.27;;;22.20;29.30;;;;;;5012606;28;20442;-76
2022/08/08 07:41:40;;;;;;;8.40;5.80;;;22.10;29.70;;;;;;5012151;28;20428;-75
2022/08/08 07:44:06;;;;;;;10.80;6.90;;;21.80;30.00;;;;;;5015176;28;21387;-78
2022/08/08 07:46:31;;;;;;;10.33;6.80;;;22.50;29.80;;;;;;5013627;28;20460;-79
2022/08/08 07:48:57;;;;;;;12.07;6.60;;;22.40;29.80;;;;;;5015303;28;20429;-79
2022/08/08 07:51:24;;;;;;;10.47;5.97;;;22.40;31.50;;;;;;5015107;28;20204;-80
2022/08/08 07:54:06;;;;;;;10.73;6.70;;;22.10;31.20;;;;;;5010936;28;20180;-75
2022/08/08 07:56:47;;;;;;;7.43;5.90;;;22.60;30.10;;;;;;5005813;28;20518;-74
2022/08/08 07:59:15;;;;;;;9.00;5.97;;;22.50;30.50;;;;;;5012741;28;20408;-75
2022/08/08 08:01:51;;;;;;;17.83;6.17;;;22.90;31.70;;;;;;5006907;28;20521;-77
2022/08/08 08:04:24;;;;;;;13.70;5.80;;;22.70;30.00;;;;;;5011031;28;20931;-76
2022/08/08 08:06:51;;;;;;;13.40;6.23;;;22.70;30.70;;;;;;4998366;28;20450;-74
2022/08/08 08:09:25;;;;;;;11.33;6.10;;;22.80;29.80;;;;;;5012861;28;21229;-74
2022/08/08 08:11:51;;;;;;;14.07;6.73;;;23.00;30.00;;;;;;5013028;28;20458;-76
2022/08/08 08:14:21;;;;;;;10.00;6.20;;;23.20;30.60;;;;;;5011872;28;20932;-75
2022/08/08 08:16:47;;;;;;;7.13;6.40;;;23.20;31.00;;;;;;5011360;28;20448;-75
2022/08/08 08:19:13;;;;;;;8.50;6.30;;;23.80;29.40;;;;;;5013057;28;20902;-75
2022/08/08 08:21:44;;;;;;;11.53;6.10;;;24.10;29.00;;;;;;5009557;28;20193;-74
2022/08/08 08:24:10;;;;;;;8.87;6.13;;;23.20;29.50;;;;;;5009226;28;20524;-75
2022/08/08 08:26:36;;;;;;;11.30;6.50;;;23.10;29.90;;;;;;5010558;28;20467;-74
2022/08/08 08:29:03;;;;;;;7.07;6.13;;;22.90;30.40;;;;;;5012245;28;20823;-73
2022/08/08 08:31:29;;;;;;;8.03;6.13;;;23.00;30.70;;;;;;5011184;28;20231;-73
2022/08/08 08:33:55;;;;;;;9.20;6.20;;;23.50;29.80;;;;;;5010726;28;20489;-72
2022/08/08 08:36:20;;;;;;;10.10;6.30;;;24.20;29.20;;;;;;5010099;28;20483;-72
2022/08/08 08:38:46;;;;;;;10.10;5.97;;;24.50;28.30;;;;;;5011744;28;20179;-73
2022/08/08 08:41:13;;;;;;;8.70;6.10;;;24.30;29.00;;;;;;5012138;28;20586;-75
2022/08/08 08:43:40;;;;;;;7.90;5.90;;;24.70;28.90;;;;;;5011106;28;20439;-73
2022/08/08 08:46:11;;;;;;;9.50;6.77;;;24.80;27.90;;;;;;5010870;28;20503;-72
2022/08/08 08:48:37;;;;;;;9.43;6.00;;;25.10;29.10;;;;;;5011577;28;20455;-74
2022/08/08 08:51:08;;;;;;;12.60;6.13;;;25.40;28.10;;;;;;5011710;28;20497;-74
2022/08/08 08:53:42;;;;;;;20.27;6.77;;;24.20;28.50;;;;;;5008740;28;20505;-71
2022/08/08 08:56:12;;;;;;;6.97;5.80;;;24.20;29.00;;;;;;5008808;28;20543;-72
2022/08/08 08:58:43;;;;;;;8.30;5.90;;;24.50;28.80;;;;;;5009187;28;20515;-71
2022/08/08 09:01:13;;;;;;;10.10;6.67;;;24.20;28.80;;;;;;4992965;28;20511;-74
2022/08/08 09:03:41;;;;;;;7.40;5.47;;;24.50;29.20;;;;;;5011625;28;20903;-71
2022/08/08 09:06:10;;;;;;;7.30;5.50;;;24.90;28.70;;;;;;5011458;28;20512;-73
2022/08/08 09:08:43;;;;;;;5.67;4.87;;;25.10;27.70;;;;;;5012089;28;20494;-72
2022/08/08 09:11:10;;;;;;;5.90;5.47;;;24.80;29.00;;;;;;5008817;28;20482;-75
2022/08/08 09:13:37;;;;;;;7.57;5.07;;;25.60;27.50;;;;;;5011108;28;20454;-72
2022/08/08 09:16:03;;;;;;;5.90;5.07;;;26.20;27.10;;;;;;5011355;28;20728;-71
2022/08/08 09:18:30;;;;;;;7.93;5.30;;;26.10;25.70;;;;;;5015717;23;20555;-70
2022/08/08 09:21:00;;;;;;;9.90;5.60;;;26.10;26.00;;;;;;4991597;28;20440;-68
2022/08/08 09:23:27;;;;;;;7.17;5.30;;;26.50;26.30;;;;;;4986015;28;20471;-67
2022/08/08 09:26:06;;;;;;;6.57;5.33;;;26.70;24.30;;;;;;4987474;28;20791;-67
2022/08/08 09:28:38;;;;;;;5.87;4.97;;;26.80;25.90;;;;;;4984028;28;20444;-67
2022/08/08 09:31:14;;;;;;;5.77;4.90;;;26.70;24.20;;;;;;4992660;28;20456;-67
2022/08/08 09:33:44;;;;;;;5.90;4.90;;;26.90;24.70;;;;;;4990302;28;20989;-67
2022/08/08 09:36:19;;;;;;;6.10;4.70;;;27.30;23.80;;;;;;5010826;28;20426;-68
2022/08/08 09:39:02;;;;;;;5.20;4.77;;;26.60;23.70;;;;;;5004342;28;20453;-68
2022/08/08 09:41:39;;;;;;;9.27;5.23;;;26.20;25.40;;;;;;4980086;28;20425;-69
2022/08/08 09:44:18;;;;;;;8.80;4.67;;;27.10;23.90;;;;;;5002777;28;20838;-69
2022/08/08 09:46:47;;;;;;;6.40;4.53;;;27.00;23.70;;;;;;4990501;28;20459;-70
2022/08/08 09:49:16;;;;;;;9.10;5.07;;;27.20;23.90;;;;;;4982513;28;20465;-69
2022/08/08 09:51:45;;;;;;;10.87;4.53;;;27.50;23.30;;;;;;4991584;28;20987;-69
2022/08/08 09:54:10;;;;;;;8.70;4.77;;;28.00;22.10;;;;;;4988554;28;20474;-69
2022/08/08 09:56:41;;;;;;;5.50;4.60;;;28.20;21.50;;;;;;5010243;28;20428;-70
2022/08/08 09:59:11;;;;;;;6.00;4.70;;;27.80;21.60;;;;;;4991846;28;20304;-69
2022/08/08 10:01:38;;;;;;;5.13;4.30;;;28.00;21.70;;;;;;4994269;28;20409;-68
2022/08/08 10:04:12;;;;;;;14.30;4.90;;;27.10;22.50;;;;;;4997402;28;20482;-68
2022/08/08 10:06:42;;;;;;;6.00;5.00;;;27.60;21.20;;;;;;5006416;28;20518;-68
2022/08/08 10:09:07;;;;;;;10.80;4.90;;;27.90;22.20;;;;;;5015324;28;20919;-68
2022/08/08 10:11:36;;;;;;;8.73;4.73;;;27.60;20.50;;;;;;5015329;28;20462;-69
2022/08/08 10:14:06;;;;;;;5.47;4.60;;;27.90;21.30;;;;;;5014949;28;20180;-68
2022/08/08 10:16:40;;;;;;;6.90;4.60;;;27.70;21.20;;;;;;5007979;28;20424;-69
2022/08/08 10:19:10;;;;;;;4.63;4.33;;;28.20;21.20;;;;;;4988052;28;20503;-69
2022/08/08 10:21:37;;;;;;;4.67;3.90;;;28.30;19.40;;;;;;4992889;28;20421;-69
2022/08/08 10:24:06;;;;;;;6.50;4.63;;;28.30;19.40;;;;;;4991584;28;20428;-70
2022/08/08 10:27:02;;;;;;;4.37;4.00;;;28.70;19.90;;;;;;4995722;28;20440;-69
2022/08/08 10:29:52;;;;;;;5.37;3.63;;;28.60;19.30;;;;;;4984663;28;20867;-69
2022/08/08 10:35:12;;;;;;;7.33;3.80;;;28.70;17.80;;;;;;4981375;28;20432;-71
2022/08/08 10:37:50;;;;;;;5.63;4.40;;;28.30;19.40;;;;;;4988253;28;20931;-70
2022/08/08 10:40:17;;;;;;;6.17;3.83;;;28.70;17.90;;;;;;4979484;28;20437;-71
2022/08/08 10:42:45;;;;;;;12.13;4.10;;;29.00;18.80;;;;;;4990414;28;20543;-69
2022/08/08 10:45:12;;;;;;;4.20;3.70;;;29.30;17.80;;;;;;4989365;28;20424;-71
2022/08/08 10:47:38;;;;;;;9.73;4.03;;;29.20;16.70;;;;;;4995061;28;20427;-70
2022/08/08 10:50:06;;;;;;;5.73;3.60;;;29.40;16.40;;;;;;4994278;28;20472;-70
2022/08/08 10:52:34;;;;;;;6.93;3.70;;;29.60;15.40;;;;;;4995670;28;20475;-69
2022/08/08 10:55:04;;;;;;;26.50;12.20;;;29.50;15.10;;;;;;4990466;28;20425;-69
2022/08/08 10:57:34;;;;;;;5.73;4.23;;;29.90;17.70;;;;;;4984731;28;20428;-69
2022/08/08 11:00:00;;;;;;;13.00;4.30;;;30.20;15.50;;;;;;4993943;28;20956;-69
2022/08/08 11:02:33;;;;;;;4.40;3.73;;;30.30;15.50;;;;;;4987321;28;20421;-70
2022/08/08 11:05:00;;;;;;;4.47;3.80;;;30.00;15.90;;;;;;4987868;28;20197;-69
2022/08/08 11:07:26;;;;;;;10.07;3.80;;;30.10;14.90;;;;;;4994823;28;20475;-71
2022/08/08 11:09:52;;;;;;;3.90;3.37;;;30.30;15.50;;;;;;4987132;28;20859;-69
2022/08/08 11:12:18;;;;;;;4.30;3.30;;;30.40;16.50;;;;;;4986290;28;20759;-69
2022/08/08 11:14:49;;;;;;;3.57;3.23;;;30.50;13.60;;;;;;4998855;28;20425;-69
2022/08/08 11:17:18;;;;;;;5.30;3.50;;;30.40;13.20;;;;;;4987105;28;20548;-69
2022/08/08 11:19:44;;;;;;;4.13;3.60;;;30.40;14.40;;;;;;4989721;28;20458;-69
2022/08/08 11:22:13;;;;;;;8.20;3.50;;;30.20;14.30;;;;;;4991767;28;20494;-69
2022/08/08 11:24:41;;;;;;;4.00;3.40;;;30.30;13.50;;;;;;4994425;28;20186;-69
2022/08/08 11:27:08;;;;;;;4.43;3.33;;;29.30;14.60;;;;;;4994738;28;20472;-71
2022/08/08 11:29:36;;;;;;;4.67;3.30;;;30.70;14.20;;;;;;4982444;28;20495;-69
2022/08/08 11:32:03;;;;;;;5.50;3.40;;;30.70;13.30;;;;;;4987680;28;20459;-73
2022/08/08 11:34:33;;;;;;;14.47;3.20;;;31.50;13.30;;;;;;4988272;28;20421;-71
2022/08/08 11:37:00;;;;;;;4.57;3.50;;;32.60;11.80;;;;;;4989494;28;20440;-70
2022/08/08 11:39:27;;;;;;;6.20;2.93;;;33.10;10.80;;;;;;4985294;28;20796;-70
2022/08/08 11:41:53;;;;;;;4.73;3.10;;;33.80;10.20;;;;;;4993533;28;20408;-70
2022/08/08 11:44:20;;;;;;;3.20;2.87;;;34.70;9.20;;;;;;4993506;28;20435;-71
2022/08/08 11:46:45;;;;;;;8.60;2.80;;;35.00;9.50;;;;;;4995478;28;20421;-70
2022/08/08 11:49:12;;;;;;;3.80;2.60;;;35.20;8.80;;;;;;4990121;28;20459;-70
2022/08/08 11:51:38;;;;;;;3.30;2.70;;;34.80;8.50;;;;;;4989495;28;20253;-70
2022/08/08 11:54:05;;;;;;;4.20;2.43;;;34.70;10.40;;;;;;4990816;28;20433;-70
2022/08/08 11:56:33;;;;;;;2.77;2.50;;;34.50;11.80;;;;;;4990355;28;20182;-70
2022/08/08 11:59:06;;;;;;;8.57;2.77;;;35.40;9.10;;;;;;4994740;28;20453;-70
2022/08/08 12:01:32;;;;;;;5.80;2.50;;;35.80;6.30;;;;;;4988765;28;20787;-70
2022/08/08 12:03:59;;;;;;;4.37;2.87;;;35.90;7.40;;;;;;4992538;28;20447;-70
2022/08/08 12:06:25;;;;;;;5.47;2.50;;;36.10;7.50;;;;;;4991385;28;20236;-71
2022/08/08 12:08:50;;;;;;;4.33;2.40;;;36.50;7.50;;;;;;4976184;28;20465;-73
2022/08/08 12:11:18;;;;;;;4.90;2.70;;;36.30;7.00;;;;;;4993093;28;20198;-70
2022/08/08 12:13:48;;;;;;;3.10;2.50;;;36.40;6.10;;;;;;4989983;28;20185;-70
2022/08/08 12:16:17;;;;;;;7.20;2.60;;;37.00;5.10;;;;;;4990170;28;20428;-72
2022/08/08 12:18:53;;;;;;;4.50;2.73;;;37.10;3.80;;;;;;4994666;28;20469;-70
2022/08/08 12:21:23;;;;;;;2.97;2.50;;;37.40;4.70;;;;;;4991663;28;20456;-72
2022/08/08 12:23:49;;;;;;;6.00;2.77;;;37.80;3.80;;;;;;4986793;28;20499;-70
2022/08/08 12:26:19;;;;;;;3.17;2.50;;;37.90;5.60;;;;;;4989559;28;20516;-70
2022/08/08 12:28:55;;;;;;;4.20;3.10;;;37.80;5.90;;;;;;4987429;28;20497;-70
2022/08/08 12:31:33;;;;;;;2.73;2.57;;;38.00;4.50;;;;;;4992140;28;20468;-70
2022/08/08 12:34:00;;;;;;;5.50;2.63;;;38.20;4.70;;;;;;4983443;28;20438;-71
2022/08/08 12:36:40;;;;;;;4.73;2.80;;;38.60;4.70;;;;;;4992392;28;20809;-72
2022/08/08 12:39:07;;;;;;;3.17;2.50;;;37.80;3.90;;;;;;4991023;28;20444;-72
2022/08/08 12:41:35;;;;;;;7.70;2.50;;;37.60;4.50;;;;;;4992086;28;20464;-70
2022/08/08 12:44:09;;;;;;;8.00;2.73;;;38.00;4.10;;;;;;4989005;28;20475;-72
2022/08/08 12:46:35;;;;;;;7.00;2.63;;;38.40;4.20;;;;;;4993019;28;20483;-70
2022/08/08 12:49:03;;;;;;;4.47;2.80;;;38.20;4.20;;;;;;4989031;28;20463;-71
2022/08/08 12:51:40;;;;;;;4.87;2.70;;;37.70;5.20;;;;;;4994665;28;20536;-70
2022/08/08 12:54:08;;;;;;;3.80;2.50;;;37.70;3.60;;;;;;4991948;28;20498;-70
2022/08/08 12:56:38;;;;;;;3.63;2.53;;;36.70;4.50;;;;;;4988574;28;20437;-70
2022/08/08 12:59:13;;;;;;;8.33;3.10;;;35.60;5.90;;;;;;4968605;28;20453;-70
2022/08/08 13:01:38;;;;;;;3.40;2.53;;;35.80;6.80;;;;;;4996929;28;20455;-70
2022/08/08 13:04:33;;;;;;;10.20;3.10;;;35.10;5.90;;;;;;4975199;28;21108;-70
2022/08/08 13:07:05;;;;;;;4.50;2.70;;;34.10;7.70;;;;;;4982972;28;20556;-70
2022/08/08 13:09:39;;;;;;;5.80;3.20;;;33.60;10.30;;;;;;4998453;28;20448;-71
2022/08/08 13:12:12;;;;;;;5.10;3.00;;;33.60;9.10;;;;;;4978619;28;21075;-72
2022/08/08 13:14:42;;;;;;;7.20;3.30;;;33.80;9.00;;;;;;4976867;28;20469;-70
2022/08/08 13:17:08;;;;;;;3.57;3.00;;;33.60;9.00;;;;;;4992121;28;20425;-70
2022/08/08 13:19:35;;;;;;;3.13;2.83;;;33.50;10.70;;;;;;4992333;28;20464;-70
2022/08/08 13:22:01;;;;;;;3.50;3.13;;;33.40;9.90;;;;;;4992011;28;20916;-70
2022/08/08 13:24:34;;;;;;;5.60;3.10;;;33.60;10.30;;;;;;4991049;28;20444;-72
2022/08/08 13:27:09;;;;;;;3.90;3.00;;;33.50;8.60;;;;;;4992297;28;20177;-70